sensor_id;sensor_type;location;lat;lon;timestamp;temperature;humidity
40630;DHT22;26329;40.388;-3.710;2022-08-18T06:14:38;18.80;51.10
40630;DHT22;26329;40.388;-3.710;2022-08-18T06:24:53;18.80;51.10
40630;DHT22;26329;40.388;-3.710;2022-08-18T06:45:25;19.00;50.40
40630;DHT22;26329;40.388;-3.710;2022-08-18T06:55:39;19.40;49.60
40630;DHT22;26329;40.388;-3.710;2022-08-18T07:06:01;19.60;48.70
40630;DHT22;26329;40.388;-3.710;2022-08-18T07:26:29;20.20;46.70
40630;DHT22;26329;40.388;-3.710;2022-08-18T07:36:53;20.90;45.60
40630;DHT22;26329;40.388;-3.710;2022-08-18T07:47:01;21.50;44.30
40630;DHT22;26329;40.388;-3.710;2022-08-18T08:07:20;22.20;42.60
40630;DHT22;26329;40.388;-3.710;2022-08-18T08:37:57;22.80;40.80
40630;DHT22;26329;40.388;-3.710;2022-08-18T08:48:23;22.80;40.80
40630;DHT22;26329;40.388;-3.710;2022-08-18T08:58:44;23.00;40.10
40630;DHT22;26329;40.388;-3.710;2022-08-18T09:29:53;23.60;38.70
40630;DHT22;26329;40.388;-3.710;2022-08-18T09:40:12;23.60;38.80
40630;DHT22;26329;40.388;-3.710;2022-08-18T09:50:36;23.70;38.10
40630;DHT22;26329;40.388;-3.710;2022-08-18T10:00:38;23.80;37.40
40630;DHT22;26329;40.388;-3.710;2022-08-18T10:31:06;24.20;36.30
40630;DHT22;26329;40.388;-3.710;2022-08-18T10:41:19;24.20;36.20
40630;DHT22;26329;40.388;-3.710;2022-08-18T11:12:06;24.80;33.20
40630;DHT22;26329;40.388;-3.710;2022-08-18T11:22:27;24.90;33.90
40630;DHT22;26329;40.388;-3.710;2022-08-18T11:32:36;25.10;33.50
40630;DHT22;26329;40.388;-3.710;2022-08-18T11:42:39;25.20;33.00
40630;DHT22;26329;40.388;-3.710;2022-08-18T11:52:48;25.40;32.00
40630;DHT22;26329;40.388;-3.710;2022-08-18T12:03:36;25.60;31.60
40630;DHT22;26329;40.388;-3.710;2022-08-18T12:13:40;25.70;31.20
40630;DHT22;26329;40.388;-3.710;2022-08-18T12:23:43;25.80;31.30
40630;DHT22;26329;40.388;-3.710;2022-08-18T12:33:44;26.20;30.90
40630;DHT22;26329;40.388;-3.710;2022-08-18T12:43:47;26.30;30.20
40630;DHT22;26329;40.388;-3.710;2022-08-18T12:53:49;26.60;29.50
40630;DHT22;26329;40.388;-3.710;2022-08-18T13:03:52;26.70;29.70
40630;DHT22;26329;40.388;-3.710;2022-08-18T13:13:55;26.70;29.50
40630;DHT22;26329;40.388;-3.710;2022-08-18T13:34:00;27.10;28.90
40630;DHT22;26329;40.388;-3.710;2022-08-18T13:44:02;27.20;28.60
40630;DHT22;26329;40.388;-3.710;2022-08-18T13:54:04;27.20;28.50
40630;DHT22;26329;40.388;-3.710;2022-08-18T20:49:16;25.70;30.00
40630;DHT22;26329;40.388;-3.710;2022-08-18T20:59:29;25.70;30.10
40630;DHT22;26329;40.388;-3.710;2022-08-18T21:09:31;25.60;30.50
40630;DHT22;26329;40.388;-3.710;2022-08-18T21:19:39;25.40;31.00
40630;DHT22;26329;40.388;-3.710;2022-08-18T21:29:43;25.30;31.40
40630;DHT22;26329;40.388;-3.710;2022-08-18T21:39:57;25.20;31.70
40630;DHT22;26329;40.388;-3.710;2022-08-18T21:50:22;25.10;31.90
40630;DHT22;26329;40.388;-3.710;2022-08-18T22:01:10;24.80;32.80
40630;DHT22;26329;40.388;-3.710;2022-08-18T22:11:34;24.70;34.80
40630;DHT22;26329;40.388;-3.710;2022-08-18T22:22:16;24.20;36.80
40630;DHT22;26329;40.388;-3.710;2022-08-18T22:32:56;24.20;37.80
40630;DHT22;26329;40.388;-3.710;2022-08-18T22:43:12;23.80;38.80
40630;DHT22;26329;40.388;-3.710;2022-08-18T22:53:34;23.50;39.40
40630;DHT22;26329;40.388;-3.710;2022-08-18T23:03:50;23.30;40.00
40630;DHT22;26329;40.388;-3.710;2022-08-18T23:14:03;23.30;40.20
40630;DHT22;26329;40.388;-3.710;2022-08-18T23:24:19;23.10;40.60
40630;DHT22;26329;40.388;-3.710;2022-08-18T23:34:40;23.00;41.00
40630;DHT22;26329;40.388;-3.710;2022-08-18T23:44:49;22.90;41.00
40630;DHT22;26329;40.388;-3.710;2022-08-18T23:54:53;22.70;41.50
